createdAt,value
2017-12-12T00:00:35.059Z,27.87
2017-12-12T00:03:01.919Z,27.52
2017-12-12T00:05:28.730Z,25.40
2017-12-12T00:07:55.603Z,27.27
2017-12-12T00:10:22.457Z,25.35
2017-12-12T00:12:49.311Z,24.48
2017-12-12T00:15:16.417Z,25.37
2017-12-12T00:17:43.247Z,26.10
2017-12-12T00:20:10.303Z,24.48
2017-12-12T00:22:42.005Z,24.70
2017-12-12T00:25:08.801Z,24.63
2017-12-12T00:27:35.854Z,25.50
2017-12-12T00:30:02.703Z,25.02
2017-12-12T00:32:29.743Z,26.33
2017-12-12T00:34:56.789Z,26.08
2017-12-12T00:37:23.944Z,25.88
2017-12-12T00:39:50.759Z,25.35
2017-12-12T00:42:17.542Z,25.85
2017-12-12T00:44:44.675Z,26.45
2017-12-12T00:47:11.482Z,26.42
2017-12-12T00:49:38.277Z,26.48
2017-12-12T00:52:05.406Z,26.75
2017-12-12T00:54:32.205Z,26.20
2017-12-12T00:56:59.041Z,26.08
2017-12-12T00:59:26.142Z,23.83
2017-12-12T01:01:52.931Z,24.63
2017-12-12T01:04:20.040Z,24.80
2017-12-12T01:06:46.879Z,23.77
2017-12-12T01:09:13.668Z,24.25
2017-12-12T01:11:40.515Z,24.17
2017-12-12T01:14:07.359Z,23.33
2017-12-12T01:16:34.191Z,22.70
2017-12-12T01:19:01.019Z,23.50
2017-12-12T01:21:27.851Z,22.90
2017-12-12T01:23:54.638Z,22.20
2017-12-12T01:26:21.728Z,23.20
2017-12-12T01:28:48.576Z,23.12
2017-12-12T01:31:15.364Z,21.42
2017-12-12T01:33:42.457Z,22.15
2017-12-12T01:36:09.611Z,22.60
2017-12-12T01:38:36.444Z,23.17
2017-12-12T01:41:03.229Z,22.85
2017-12-12T01:43:30.087Z,22.08
2017-12-12T01:45:56.914Z,21.40
2017-12-12T01:48:23.726Z,21.23
2017-12-12T01:50:50.566Z,20.40
2017-12-12T01:53:17.372Z,20.92
2017-12-12T01:55:44.459Z,20.27
2017-12-12T01:58:11.306Z,20.60
2017-12-12T02:00:38.152Z,19.70
2017-12-12T02:03:04.979Z,19.90
2017-12-12T02:05:31.865Z,19.70
2017-12-12T02:07:58.656Z,19.60
2017-12-12T02:10:25.491Z,19.90
2017-12-12T02:12:52.331Z,19.40
2017-12-12T02:15:19.176Z,18.70
2017-12-12T02:17:45.987Z,19.15
2017-12-12T02:20:12.822Z,18.40
2017-12-12T02:22:39.658Z,18.87
2017-12-12T02:25:06.515Z,17.10
2017-12-12T02:27:33.365Z,17.63
2017-12-12T02:30:00.190Z,17.10
2017-12-12T02:32:27.040Z,16.17
2017-12-12T02:34:53.917Z,16.50
2017-12-12T02:37:20.994Z,15.40
2017-12-12T02:39:47.811Z,15.65
2017-12-12T02:42:14.654Z,15.10
2017-12-12T02:44:41.458Z,13.93
2017-12-12T02:47:08.321Z,14.40
2017-12-12T02:49:35.213Z,14.45
2017-12-12T02:52:02.064Z,14.02
2017-12-12T02:54:28.887Z,13.75
2017-12-12T02:56:55.734Z,14.82
2017-12-12T02:59:22.575Z,14.27
2017-12-12T03:01:49.384Z,13.07
2017-12-12T03:04:16.584Z,12.98
2017-12-12T03:06:43.389Z,13.50
2017-12-12T03:09:10.474Z,13.90
2017-12-12T03:11:37.617Z,13.10
2017-12-12T03:14:04.475Z,14.27
2017-12-12T03:16:31.281Z,14.30
2017-12-12T03:18:58.106Z,14.50
2017-12-12T03:21:24.918Z,15.18
2017-12-12T03:23:51.747Z,14.30
2017-12-12T03:26:18.887Z,14.60
2017-12-12T03:28:45.690Z,14.80
2017-12-12T03:31:12.522Z,13.77
2017-12-12T03:33:39.514Z,13.70
2017-12-12T03:36:06.317Z,13.77
2017-12-12T03:38:33.411Z,13.10
2017-12-12T03:41:00.283Z,13.10
2017-12-12T03:43:27.081Z,13.40
2017-12-12T03:45:54.143Z,12.73
2017-12-12T03:48:21.027Z,13.00
2017-12-12T03:50:47.878Z,12.32
2017-12-12T03:55:59.134Z,12.60
2017-12-12T03:58:26.020Z,13.32
2017-12-12T04:00:52.863Z,12.90
2017-12-12T04:03:19.755Z,13.70
2017-12-12T04:05:46.604Z,13.53
2017-12-12T04:08:13.468Z,13.23
2017-12-12T04:10:40.368Z,14.40
2017-12-12T04:13:07.548Z,13.50
2017-12-12T04:15:34.387Z,15.07
2017-12-12T04:18:01.280Z,14.40
2017-12-12T04:20:28.497Z,14.60
2017-12-12T04:22:55.343Z,14.50
2017-12-12T04:25:22.280Z,15.30
2017-12-12T04:27:49.148Z,15.32
2017-12-12T04:30:16.018Z,16.23
2017-12-12T04:32:42.929Z,15.75
2017-12-12T04:35:09.795Z,15.27
2017-12-12T04:37:36.643Z,16.60
2017-12-12T04:40:03.564Z,17.47
2017-12-12T04:42:30.444Z,19.20
2017-12-12T04:44:57.334Z,18.80
2017-12-12T04:47:24.183Z,19.95
2017-12-12T04:49:51.044Z,20.98
2017-12-12T04:52:17.917Z,21.33
2017-12-12T04:54:44.810Z,22.40
2017-12-12T04:57:11.646Z,23.70
2017-12-12T04:59:38.813Z,22.05
2017-12-12T05:02:05.688Z,23.60
2017-12-12T05:04:32.544Z,21.73
2017-12-12T05:06:59.408Z,22.08
2017-12-12T05:09:26.328Z,23.90
2017-12-12T05:11:53.212Z,24.42
2017-12-12T05:14:20.101Z,26.30
2017-12-12T05:16:47.316Z,28.60
2017-12-12T05:19:14.212Z,28.57
2017-12-12T05:21:41.307Z,30.40
2017-12-12T05:24:08.226Z,31.62
2017-12-12T05:26:35.126Z,31.80
2017-12-12T05:29:01.991Z,32.90
2017-12-12T05:31:28.905Z,35.10
2017-12-12T05:33:55.750Z,32.42
2017-12-12T05:36:22.610Z,28.90
2017-12-12T05:38:49.828Z,28.70
2017-12-12T05:41:16.707Z,30.80
2017-12-12T05:43:43.592Z,29.48
2017-12-12T05:46:10.500Z,29.60
2017-12-12T05:48:37.713Z,30.30
2017-12-12T05:51:04.678Z,26.23
2017-12-12T05:53:31.534Z,26.65
2017-12-12T05:55:58.756Z,25.42
2017-12-12T05:58:25.905Z,23.90
2017-12-12T06:00:53.052Z,22.87
2017-12-12T06:03:19.968Z,22.58
2017-12-12T06:05:46.868Z,22.50
2017-12-12T06:08:13.797Z,23.02
2017-12-12T06:10:40.659Z,23.52
2017-12-12T06:13:07.557Z,22.67
2017-12-12T06:15:34.725Z,24.67
2017-12-12T06:18:01.884Z,25.40
2017-12-12T06:20:28.768Z,22.90
2017-12-12T06:22:55.972Z,21.25
2017-12-12T06:25:23.125Z,20.05
2017-12-12T06:27:50.282Z,20.10
2017-12-12T06:30:17.425Z,20.40
2017-12-12T06:32:44.309Z,17.98
2017-12-12T06:35:11.196Z,20.02
2017-12-12T06:37:38.087Z,18.48
2017-12-12T06:40:04.970Z,17.85
2017-12-12T06:42:31.870Z,18.70
2017-12-12T06:44:59.101Z,18.12
2017-12-12T06:47:26.247Z,17.87
2017-12-12T06:49:53.095Z,17.30
2017-12-12T06:52:20.017Z,16.35
2017-12-12T06:54:46.870Z,14.30
2017-12-12T06:57:13.729Z,14.90
2017-12-12T06:59:40.623Z,15.43
2017-12-12T07:02:11.264Z,15.35
2017-12-12T07:04:38.091Z,14.90
2017-12-12T07:07:05.041Z,14.15
2017-12-12T07:09:31.922Z,13.43
2017-12-12T07:11:59.084Z,12.13
2017-12-12T07:14:26.235Z,12.68
2017-12-12T07:16:53.051Z,12.43
2017-12-12T07:19:19.940Z,12.97
2017-12-12T07:21:46.830Z,12.70
2017-12-12T07:24:14.015Z,12.27
2017-12-12T07:26:40.900Z,10.82
2017-12-12T07:29:07.738Z,10.70
2017-12-12T07:31:34.847Z,10.45
2017-12-12T07:34:01.999Z,10.35
2017-12-12T07:36:29.929Z,10.20
2017-12-12T07:38:57.015Z,10.35
2017-12-12T07:41:24.524Z,9.55
2017-12-12T07:43:51.361Z,9.07
2017-12-12T07:46:18.469Z,9.73
2017-12-12T07:48:45.318Z,8.83
2017-12-12T07:51:12.464Z,8.60
2017-12-12T07:53:39.312Z,9.20
2017-12-12T07:56:06.152Z,9.50
2017-12-12T07:58:33.299Z,9.40
2017-12-12T08:01:00.153Z,9.25
2017-12-12T08:03:27.019Z,9.30
2017-12-12T08:05:53.883Z,10.30
2017-12-12T08:08:20.751Z,10.75
2017-12-12T08:10:47.635Z,9.50
2017-12-12T08:13:14.552Z,10.80
2017-12-12T08:15:41.720Z,10.02
2017-12-12T08:18:08.863Z,9.70
2017-12-12T08:20:36.011Z,12.15
2017-12-12T08:23:02.854Z,12.48
2017-12-12T08:25:29.722Z,9.25
2017-12-12T08:27:56.629Z,9.55
2017-12-12T08:30:23.800Z,9.30
2017-12-12T08:32:50.666Z,9.52
2017-12-12T08:35:17.792Z,9.98
2017-12-12T08:37:44.615Z,10.10
2017-12-12T08:40:11.453Z,10.50
2017-12-12T08:42:38.325Z,9.98
2017-12-12T08:45:05.151Z,9.90
2017-12-12T08:47:31.991Z,10.40
2017-12-12T08:49:58.887Z,14.68
2017-12-12T08:52:25.774Z,10.18
2017-12-12T08:54:52.608Z,10.68
2017-12-12T08:57:19.787Z,10.30
2017-12-12T08:59:46.945Z,11.05
2017-12-12T09:02:13.824Z,12.52
2017-12-12T09:04:40.709Z,12.98
2017-12-12T09:07:07.523Z,13.10
2017-12-12T09:09:34.374Z,14.38
2017-12-12T09:12:01.459Z,13.85
2017-12-12T09:14:28.617Z,15.90
2017-12-12T09:16:55.435Z,15.65
2017-12-12T09:19:22.312Z,16.58
2017-12-12T09:21:49.163Z,17.08
2017-12-12T09:24:16.298Z,16.75
2017-12-12T09:26:43.190Z,18.30
2017-12-12T09:29:10.283Z,17.80
2017-12-12T09:31:37.123Z,15.25
2017-12-12T09:34:03.972Z,16.30
2017-12-12T09:36:30.839Z,15.93
2017-12-12T09:38:57.967Z,15.70
2017-12-12T09:41:24.933Z,16.58
2017-12-12T09:43:52.169Z,14.45
2017-12-12T09:46:18.985Z,14.70
2017-12-12T09:48:45.856Z,13.70
2017-12-12T09:51:12.728Z,14.55
2017-12-12T09:53:39.632Z,14.35
2017-12-12T09:56:06.791Z,13.77
2017-12-12T09:58:33.656Z,14.70
2017-12-12T10:01:00.785Z,15.80
2017-12-12T10:03:27.671Z,16.15
2017-12-12T10:05:54.514Z,15.70
2017-12-12T10:08:21.378Z,15.90
2017-12-12T10:10:48.243Z,15.52
2017-12-12T10:13:15.101Z,16.45
2017-12-12T10:15:42.251Z,15.77
2017-12-12T10:18:09.175Z,16.08
2017-12-12T10:20:36.015Z,15.27
2017-12-12T10:23:02.893Z,15.85
2017-12-12T10:25:30.035Z,14.50
2017-12-12T10:27:56.894Z,15.15
2017-12-12T10:30:23.715Z,15.60
2017-12-12T10:32:50.612Z,23.85
2017-12-12T10:35:17.450Z,14.73
2017-12-12T10:37:44.560Z,15.02
2017-12-12T10:40:11.438Z,14.95
2017-12-12T10:42:38.337Z,14.07
2017-12-12T10:45:05.183Z,14.38
2017-12-12T10:47:32.046Z,14.30
2017-12-12T10:49:58.940Z,14.63
2017-12-12T10:52:26.134Z,14.35
2017-12-12T10:54:53.004Z,14.30
2017-12-12T10:57:20.229Z,14.82
2017-12-12T10:59:47.371Z,15.13
2017-12-12T11:02:14.529Z,16.23
2017-12-12T11:04:41.672Z,15.73
2017-12-12T11:07:08.544Z,14.85
2017-12-12T11:09:35.463Z,15.38
2017-12-12T11:12:02.320Z,14.70
2017-12-12T11:14:29.140Z,15.02
2017-12-12T11:16:56.308Z,15.00
2017-12-12T11:19:23.556Z,15.10
2017-12-12T11:21:50.424Z,15.10
2017-12-12T11:24:17.544Z,14.70
2017-12-12T11:26:44.457Z,15.40
2017-12-12T11:29:11.333Z,15.30
2017-12-12T11:31:38.488Z,15.25
2017-12-12T11:34:05.315Z,15.05
2017-12-12T11:36:32.584Z,15.38
2017-12-12T11:38:59.465Z,15.27
2017-12-12T11:41:26.345Z,15.02
2017-12-12T11:43:53.196Z,16.17
2017-12-12T11:46:20.039Z,16.20
2017-12-12T11:48:47.212Z,19.83
2017-12-12T11:51:14.103Z,18.10
2017-12-12T11:53:41.005Z,17.77
2017-12-12T11:56:07.871Z,18.33
2017-12-12T11:58:34.992Z,18.75
2017-12-12T12:01:01.843Z,22.98
2017-12-12T12:03:28.984Z,19.98
2017-12-12T12:05:55.832Z,19.37
2017-12-12T12:08:22.713Z,19.33
2017-12-12T12:10:49.636Z,19.83
2017-12-12T12:13:16.772Z,17.80
2017-12-12T12:15:43.913Z,17.45
2017-12-12T12:18:11.063Z,16.20
2017-12-12T12:20:37.952Z,15.65
2017-12-12T12:23:05.160Z,15.23
2017-12-12T12:25:32.307Z,14.00
2017-12-12T12:27:59.235Z,13.62
2017-12-12T12:30:26.412Z,12.98
2017-12-12T12:32:53.297Z,12.45
2017-12-12T12:35:20.182Z,13.20
2017-12-12T12:37:47.102Z,13.48
2017-12-12T12:40:14.291Z,13.43
2017-12-12T12:42:41.203Z,12.80
2017-12-12T12:45:08.134Z,10.60
2017-12-12T12:47:35.237Z,10.40
2017-12-12T12:50:02.101Z,11.43
2017-12-12T12:52:28.976Z,9.87
2017-12-12T12:54:56.173Z,10.05
2017-12-12T12:57:23.319Z,9.82
2017-12-12T12:59:50.240Z,9.55
2017-12-12T13:02:17.418Z,9.90
2017-12-12T13:04:44.231Z,9.88
2017-12-12T13:07:11.412Z,10.05
2017-12-12T13:09:38.264Z,9.27
2017-12-12T13:12:05.406Z,8.67
2017-12-12T13:14:32.558Z,8.95
2017-12-12T13:16:59.699Z,8.98
2017-12-12T13:19:26.543Z,9.20
2017-12-12T13:21:53.441Z,8.70
2017-12-12T13:24:20.540Z,9.02
2017-12-12T13:26:47.693Z,9.03
2017-12-12T13:29:14.562Z,9.07
2017-12-12T13:31:41.377Z,9.60
2017-12-12T13:34:08.245Z,9.50
2017-12-12T13:36:35.116Z,9.30
2017-12-12T13:39:02.316Z,9.32
2017-12-12T13:41:29.471Z,9.60
2017-12-12T13:43:57.263Z,9.20
2017-12-12T13:46:24.095Z,9.57
2017-12-12T13:48:51.194Z,9.70
2017-12-12T13:51:18.376Z,9.60
2017-12-12T13:53:45.247Z,9.73
2017-12-12T13:56:12.059Z,9.60
2017-12-12T13:58:38.903Z,8.98
2017-12-12T14:01:05.716Z,9.45
2017-12-12T14:03:32.575Z,9.50
2017-12-12T14:05:59.492Z,10.00
2017-12-12T14:08:26.307Z,9.30
2017-12-12T14:10:53.123Z,9.77
2017-12-12T14:13:20.270Z,9.70
2017-12-12T14:15:47.108Z,10.15
2017-12-12T14:18:13.985Z,10.00
2017-12-12T14:20:40.838Z,10.23
2017-12-12T14:23:07.681Z,10.38
2017-12-12T14:25:34.791Z,10.70
2017-12-12T14:28:01.871Z,10.02
2017-12-12T14:30:28.695Z,10.50
2017-12-12T14:32:55.522Z,10.68
2017-12-12T14:35:22.393Z,10.70
2017-12-12T14:37:49.244Z,11.12
2017-12-12T14:40:16.075Z,10.75
2017-12-12T14:42:42.931Z,10.65
2017-12-12T14:45:09.804Z,11.07
2017-12-12T14:47:36.644Z,10.80
2017-12-12T14:50:03.845Z,11.15
2017-12-12T14:52:30.990Z,10.95
2017-12-12T14:54:57.811Z,11.30
2017-12-12T14:57:24.983Z,11.50
2017-12-12T14:59:51.836Z,11.10
2017-12-12T15:02:18.671Z,11.52
2017-12-12T15:04:45.548Z,11.02
2017-12-12T15:07:12.417Z,11.30
2017-12-12T15:09:39.276Z,11.75
2017-12-12T15:12:06.127Z,11.27
2017-12-12T15:14:32.985Z,11.57
2017-12-12T15:16:59.855Z,11.43
2017-12-12T15:19:26.735Z,11.75
2017-12-12T15:21:53.590Z,12.00
2017-12-12T15:24:20.419Z,12.00
2017-12-12T15:26:47.611Z,12.52
2017-12-12T15:29:14.436Z,12.00
2017-12-12T15:31:41.301Z,11.98
2017-12-12T15:34:08.448Z,12.70
2017-12-12T15:36:35.269Z,12.67
2017-12-12T15:39:02.197Z,13.17
2017-12-12T15:41:29.157Z,13.10
2017-12-12T15:43:56.435Z,12.43
2017-12-12T15:46:23.591Z,13.35
2017-12-12T15:48:50.742Z,15.55
2017-12-12T15:51:17.825Z,13.00
2017-12-12T15:53:44.700Z,13.18
2017-12-12T15:56:11.885Z,12.80
2017-12-12T15:58:38.711Z,13.40
2017-12-12T16:01:05.981Z,12.15
2017-12-12T16:03:32.876Z,12.40
2017-12-12T16:05:59.999Z,17.70
2017-12-12T16:08:26.828Z,15.88
2017-12-12T16:10:53.965Z,12.63
2017-12-12T16:13:21.112Z,12.52
2017-12-12T16:15:48.263Z,13.20
2017-12-12T16:18:15.178Z,12.52
2017-12-12T16:20:42.037Z,13.07
2017-12-12T16:23:08.859Z,13.00
2017-12-12T16:25:36.053Z,12.25
2017-12-12T16:28:02.932Z,12.85
2017-12-12T16:30:29.760Z,12.27
2017-12-12T16:32:56.892Z,11.90
2017-12-12T16:35:24.045Z,12.25
2017-12-12T16:37:50.891Z,12.82
2017-12-12T16:40:17.825Z,12.30
2017-12-12T16:42:44.667Z,12.95
2017-12-12T16:45:11.493Z,12.40
2017-12-12T16:47:38.359Z,13.10
2017-12-12T16:50:05.510Z,12.90
2017-12-12T16:52:32.360Z,13.15
2017-12-12T16:54:59.279Z,13.55
2017-12-12T16:57:26.451Z,16.05
2017-12-12T16:59:53.596Z,13.30
2017-12-12T17:02:20.844Z,12.07
2017-12-12T17:04:47.708Z,12.73
2017-12-12T17:07:14.515Z,13.20
2017-12-12T17:09:41.393Z,13.18
2017-12-12T17:12:08.539Z,13.38
2017-12-12T17:14:35.397Z,12.95
2017-12-12T17:17:02.252Z,13.48
2017-12-12T17:19:29.359Z,13.20
2017-12-12T17:21:56.216Z,14.48
2017-12-12T17:24:23.062Z,15.88
2017-12-12T17:26:50.200Z,14.02
2017-12-12T17:29:17.347Z,13.80
2017-12-12T17:31:44.192Z,13.30
2017-12-12T17:34:11.052Z,13.90
2017-12-12T17:36:38.184Z,14.30
2017-12-12T17:39:05.089Z,14.45
2017-12-12T17:41:31.920Z,15.50
2017-12-12T17:43:58.764Z,16.65
2017-12-12T17:46:25.639Z,16.80
2017-12-12T17:48:52.807Z,17.30
2017-12-12T17:51:19.664Z,17.15
2017-12-12T17:53:46.523Z,17.70
2017-12-12T17:56:13.376Z,17.08
2017-12-12T17:58:40.285Z,17.77
2017-12-12T18:01:07.441Z,18.05
2017-12-12T18:03:34.296Z,18.75
2017-12-12T18:06:01.160Z,18.40
2017-12-12T18:08:28.033Z,18.92
2017-12-12T18:10:55.121Z,17.70
2017-12-12T18:13:21.947Z,17.60
2017-12-12T18:15:48.829Z,18.30
2017-12-12T18:18:15.684Z,15.88
2017-12-12T18:20:42.800Z,17.62
2017-12-12T18:23:09.651Z,17.25
2017-12-12T18:25:36.504Z,16.90
2017-12-12T18:28:03.319Z,17.10
2017-12-12T18:30:30.196Z,16.90
2017-12-12T18:32:57.318Z,16.98
2017-12-12T18:35:24.135Z,17.65
2017-12-12T18:37:51.004Z,26.58
2017-12-12T18:40:17.827Z,17.77
2017-12-12T18:42:44.684Z,16.83
2017-12-12T18:45:11.537Z,15.80
2017-12-12T18:47:38.359Z,15.20
2017-12-12T18:50:05.187Z,15.90
2017-12-12T18:52:32.367Z,16.40
2017-12-12T18:54:59.235Z,15.03
2017-12-12T18:57:26.056Z,15.30
2017-12-12T18:59:53.215Z,15.52
2017-12-12T19:02:20.071Z,15.88
2017-12-12T19:04:46.925Z,17.17
2017-12-12T19:07:14.050Z,16.52
2017-12-12T19:09:40.903Z,17.70
2017-12-12T19:12:07.735Z,17.77
2017-12-12T19:14:34.637Z,17.50
2017-12-12T19:17:01.488Z,17.87
2017-12-12T19:19:28.360Z,18.05
2017-12-12T19:21:55.521Z,18.98
2017-12-12T19:24:22.678Z,18.40
2017-12-12T19:26:49.545Z,19.90
2017-12-12T19:29:16.662Z,19.85
2017-12-12T19:31:43.808Z,19.37
2017-12-12T19:34:10.965Z,20.20
2017-12-12T19:36:37.858Z,20.35
2017-12-12T19:39:05.057Z,19.90
2017-12-12T19:41:31.879Z,19.23
2017-12-12T19:43:59.051Z,20.58
2017-12-12T19:46:25.900Z,18.75
2017-12-12T19:48:53.039Z,19.52
2017-12-12T19:51:20.191Z,21.12
2017-12-12T19:53:47.346Z,19.45
2017-12-12T19:56:14.245Z,19.20
2017-12-12T19:58:41.129Z,18.93
2017-12-12T20:01:07.951Z,18.25
2017-12-12T20:03:34.779Z,19.93
2017-12-12T20:06:01.674Z,18.20
2017-12-12T20:08:28.813Z,18.42
2017-12-12T20:10:55.651Z,19.15
2017-12-12T20:13:22.510Z,18.20
2017-12-12T20:15:49.396Z,18.87
2017-12-12T20:18:16.596Z,18.42
2017-12-12T20:20:43.744Z,19.50
2017-12-12T20:23:10.589Z,20.37
2017-12-12T20:25:37.411Z,19.83
2017-12-12T20:28:04.584Z,20.08
2017-12-12T20:30:31.429Z,20.08
2017-12-12T20:32:58.575Z,21.15
2017-12-12T20:35:25.728Z,20.35
2017-12-12T20:37:52.586Z,19.90
2017-12-12T20:40:19.825Z,21.62
2017-12-12T20:42:46.673Z,21.37
2017-12-12T20:45:13.487Z,20.60
2017-12-12T20:47:40.334Z,19.20
2017-12-12T20:50:07.209Z,18.40
2017-12-12T20:52:34.035Z,18.60
2017-12-12T20:55:00.901Z,19.12
2017-12-12T20:57:27.776Z,18.80
2017-12-12T20:59:54.982Z,17.40
2017-12-12T21:02:22.124Z,18.85
2017-12-12T21:04:49.013Z,19.48
2017-12-12T21:07:15.880Z,16.50
2017-12-12T21:09:42.756Z,17.27
2017-12-12T21:12:09.670Z,17.30
2017-12-12T21:14:36.503Z,16.80
2017-12-12T21:17:03.343Z,16.90
2017-12-12T21:19:30.541Z,17.08
2017-12-12T21:21:57.409Z,16.50
2017-12-12T21:24:24.280Z,17.12
2017-12-12T21:26:51.153Z,17.70
2017-12-12T21:29:18.012Z,17.37
2017-12-12T21:31:44.859Z,16.00
2017-12-12T21:34:11.711Z,15.75
2017-12-12T21:36:38.555Z,15.80
2017-12-12T21:39:05.697Z,16.30
2017-12-12T21:41:32.849Z,16.00
2017-12-12T21:43:59.997Z,17.70
2017-12-12T21:46:26.868Z,15.85
2017-12-12T21:48:53.760Z,19.58
2017-12-12T21:51:20.621Z,18.10
2017-12-12T21:53:47.485Z,17.98
2017-12-12T21:56:14.615Z,17.20
2017-12-12T21:58:41.451Z,18.30
2017-12-12T22:01:08.291Z,18.27
2017-12-12T22:03:35.568Z,17.58
2017-12-12T22:06:02.469Z,17.93
2017-12-12T22:08:29.305Z,17.10
2017-12-12T22:10:56.500Z,18.23
2017-12-12T22:13:23.648Z,18.37
2017-12-12T22:15:50.483Z,18.77
2017-12-12T22:18:17.364Z,18.17
2017-12-12T22:20:44.228Z,18.30
2017-12-12T22:23:11.101Z,18.30
2017-12-12T22:25:38.276Z,19.00
2017-12-12T22:28:05.418Z,18.87
2017-12-12T22:30:32.577Z,19.57
2017-12-12T22:32:59.529Z,19.42
2017-12-12T22:35:26.356Z,20.30
2017-12-12T22:37:53.517Z,20.80
2017-12-12T22:40:20.372Z,19.80
2017-12-12T22:42:47.232Z,20.30
2017-12-12T22:45:14.068Z,21.10
2017-12-12T22:47:41.191Z,20.15
2017-12-12T22:50:08.060Z,21.00
2017-12-12T22:52:34.913Z,22.10
2017-12-12T22:55:01.789Z,20.70
2017-12-12T22:57:28.871Z,22.70
2017-12-12T22:59:56.029Z,22.70
2017-12-12T23:02:23.170Z,21.67
2017-12-12T23:04:50.051Z,20.50
2017-12-12T23:07:17.167Z,20.50
2017-12-12T23:09:44.324Z,20.02
2017-12-12T23:12:11.151Z,18.50
2017-12-12T23:14:38.004Z,20.05
2017-12-12T23:17:05.210Z,21.60
2017-12-12T23:19:32.027Z,19.62
2017-12-12T23:21:58.845Z,19.27
2017-12-12T23:24:25.734Z,19.30
2017-12-12T23:26:52.607Z,18.70
2017-12-12T23:29:19.420Z,18.10
2017-12-12T23:31:46.295Z,18.03
2017-12-12T23:34:13.148Z,18.10
2017-12-12T23:36:39.964Z,16.80
2017-12-12T23:39:06.843Z,17.10
2017-12-12T23:41:33.700Z,17.50
2017-12-12T23:44:00.556Z,15.77
2017-12-12T23:46:27.442Z,17.12
2017-12-12T23:48:54.271Z,16.73
2017-12-12T23:51:21.315Z,16.12
2017-12-12T23:53:48.158Z,16.80
2017-12-12T23:56:14.992Z,16.98
2017-12-12T23:58:41.821Z,15.75
